createdAt,value
2022-10-28T00:00:05.689Z,101371.80
2022-10-28T00:05:34.100Z,101370.00
2022-10-28T00:10:37.458Z,101367.00
2022-10-28T00:15:40.470Z,101367.00
2022-10-28T00:20:43.515Z,101356.40
2022-10-28T00:25:46.471Z,101352.00
2022-10-28T00:30:49.408Z,101354.60
2022-10-28T00:35:52.375Z,101346.40
2022-10-28T00:40:55.405Z,101337.80
2022-10-28T00:45:58.694Z,101334.80
2022-10-28T00:51:03.467Z,101335.20
2022-10-28T00:56:08.868Z,101335.60
2022-10-28T01:01:11.875Z,101330.80
2022-10-28T01:06:15.579Z,101328.80
2022-10-28T01:11:45.452Z,101329.00
2022-10-28T01:17:24.911Z,101328.00
2022-10-28T01:22:27.879Z,101319.20
2022-10-28T01:28:11.370Z,101307.60
2022-10-28T01:34:13.171Z,101315.80
2022-10-28T01:39:47.490Z,101302.00
2022-10-28T01:45:08.922Z,101300.00
2022-10-28T01:50:44.403Z,101293.20
2022-10-28T01:55:54.149Z,101288.40
2022-10-28T02:01:01.012Z,101282.00
2022-10-28T02:06:11.375Z,101286.00
2022-10-28T02:11:55.487Z,101285.80
2022-10-28T02:17:10.782Z,101290.20
2022-10-28T02:22:41.024Z,101281.00
2022-10-28T02:28:00.642Z,101269.40
2022-10-28T02:33:10.799Z,101267.60
2022-10-28T02:38:39.903Z,101262.40
2022-10-28T02:43:46.026Z,101276.20
2022-10-28T02:48:55.287Z,101266.00
2022-10-28T02:54:09.749Z,101263.40
2022-10-28T02:59:13.798Z,101258.20
2022-10-28T03:04:16.832Z,101260.20
2022-10-28T03:09:19.869Z,101259.20
2022-10-28T03:14:22.947Z,101256.40
2022-10-28T03:19:25.958Z,101253.20
2022-10-28T03:24:28.953Z,101251.60
2022-10-28T03:29:32.265Z,101257.60
2022-10-28T03:34:35.268Z,101247.60
2022-10-28T03:39:38.270Z,101250.40
2022-10-28T03:44:41.296Z,101248.40
2022-10-28T03:49:44.279Z,101244.80
2022-10-28T03:54:47.285Z,101240.00
2022-10-28T03:59:50.288Z,101236.20
2022-10-28T04:04:53.606Z,101238.20
2022-10-28T04:09:56.601Z,101236.60
2022-10-28T04:14:59.647Z,101234.80
2022-10-28T04:20:02.734Z,101233.00
2022-10-28T04:25:06.556Z,101224.00
2022-10-28T04:30:13.073Z,101214.00
2022-10-28T04:35:16.333Z,101211.00
2022-10-28T04:40:19.351Z,101206.80
2022-10-28T04:45:22.439Z,101202.60
2022-10-28T04:50:26.074Z,101196.40
2022-10-28T04:55:29.265Z,101187.00
2022-10-28T05:00:32.488Z,101185.00
2022-10-28T05:05:37.630Z,101181.00
2022-10-28T05:10:40.666Z,101181.00
2022-10-28T05:15:44.149Z,101178.60
2022-10-28T05:20:47.257Z,101173.60
2022-10-28T05:25:52.004Z,101169.40
2022-10-28T05:30:55.043Z,101164.20
2022-10-28T05:36:00.111Z,101162.40
2022-10-28T05:41:03.814Z,101167.60
2022-10-28T05:46:06.780Z,101158.00
2022-10-28T05:51:09.802Z,101154.80
2022-10-28T05:56:12.793Z,101149.60
2022-10-28T06:01:15.856Z,101136.80
2022-10-28T06:06:18.897Z,101136.00
2022-10-28T06:11:20.323Z,101137.00
2022-10-28T06:16:23.311Z,101132.00
2022-10-28T06:21:26.380Z,101126.00
2022-10-28T06:26:29.390Z,101132.40
2022-10-28T06:31:32.431Z,101124.80
2022-10-28T06:36:35.714Z,101137.80
2022-10-28T06:41:38.972Z,101143.80
2022-10-28T06:46:43.562Z,101133.60
2022-10-28T06:51:46.659Z,101133.00
2022-10-28T06:56:49.679Z,101137.20
2022-10-28T07:01:52.903Z,101138.20
2022-10-28T07:06:59.371Z,101137.80
2022-10-28T07:12:05.049Z,101135.00
2022-10-28T07:17:08.869Z,101135.40
2022-10-28T07:22:12.378Z,101143.20
2022-10-28T07:27:15.602Z,101139.00
2022-10-28T07:32:18.726Z,101134.20
2022-10-28T07:37:22.030Z,101127.00
2022-10-28T07:42:25.139Z,101127.00
2022-10-28T07:47:28.481Z,101132.20
2022-10-28T07:52:31.951Z,101146.60
2022-10-28T07:57:36.003Z,101137.40
2022-10-28T08:02:39.861Z,101122.20
2022-10-28T08:07:42.943Z,101114.80
2022-10-28T08:12:46.758Z,101117.80
2022-10-28T08:17:54.217Z,101103.60
2022-10-28T08:23:01.771Z,101096.60
2022-10-28T08:28:07.188Z,101094.60
2022-10-28T08:33:10.477Z,101090.40
2022-10-28T08:38:13.484Z,101096.60
2022-10-28T08:43:57.115Z,101090.00
2022-10-28T08:49:14.458Z,101091.00
2022-10-28T08:54:50.676Z,101085.40
2022-10-28T08:59:55.249Z,101085.60
2022-10-28T09:05:23.056Z,101078.20
2022-10-28T09:10:43.096Z,101070.60
2022-10-28T09:16:24.702Z,101077.40
2022-10-28T09:21:45.644Z,101068.60
2022-10-28T09:27:17.307Z,101073.60
2022-10-28T09:32:30.010Z,101072.40
2022-10-28T09:37:41.540Z,101067.20
2022-10-28T09:43:28.065Z,101066.00
2022-10-28T09:48:55.967Z,101055.00
2022-10-28T09:54:01.440Z,101050.80
2022-10-28T09:59:05.540Z,101042.00
2022-10-28T10:04:31.309Z,101033.60
2022-10-28T10:09:37.405Z,101033.60
2022-10-28T10:14:49.190Z,101032.80
2022-10-28T10:20:15.206Z,101038.20
2022-10-28T10:25:18.118Z,101025.20
2022-10-28T10:30:56.810Z,101011.40
2022-10-28T10:36:10.744Z,101012.60
2022-10-28T10:41:36.939Z,101014.60
2022-10-28T10:46:39.877Z,101007.60
2022-10-28T10:51:59.835Z,101004.40
2022-10-28T10:57:20.788Z,101003.60
2022-10-28T11:02:31.685Z,100999.80
2022-10-28T11:07:37.515Z,100992.60
2022-10-28T11:12:54.417Z,100985.60
2022-10-28T11:18:21.664Z,100972.80
2022-10-28T11:23:33.946Z,100970.40
2022-10-28T11:28:59.705Z,100961.20
2022-10-28T11:35:01.076Z,100957.00
2022-10-28T11:40:32.549Z,100950.40
2022-10-28T11:45:51.315Z,100941.00
2022-10-28T11:51:28.528Z,100951.20
2022-10-28T11:56:43.358Z,100956.20
2022-10-28T12:02:20.381Z,100965.00
2022-10-28T12:07:29.368Z,100967.60
2022-10-28T12:12:47.197Z,100975.20
2022-10-28T12:17:58.402Z,100968.80
2022-10-28T12:23:23.762Z,100951.80
2022-10-28T12:28:58.999Z,100945.40
2022-10-28T12:34:10.466Z,100932.40
2022-10-28T12:39:44.339Z,100941.20
2022-10-28T12:44:52.957Z,100946.20
2022-10-28T12:50:28.218Z,100936.00
2022-10-28T12:56:00.964Z,100951.80
2022-10-28T13:01:21.345Z,100960.40
2022-10-28T13:07:06.010Z,100951.00
2022-10-28T13:12:26.962Z,100952.00
2022-10-28T13:18:28.098Z,100928.20
2022-10-28T13:23:58.240Z,100917.20
2022-10-28T13:29:07.360Z,100894.40
2022-10-28T13:34:15.113Z,100886.80
2022-10-28T13:39:31.828Z,100888.00
2022-10-28T13:44:58.875Z,100883.40
2022-10-28T13:50:34.424Z,100876.00
2022-10-28T13:55:40.943Z,100872.80
2022-10-28T14:00:46.746Z,100878.60
2022-10-28T14:06:02.646Z,100874.40
2022-10-28T14:11:22.416Z,100869.00
2022-10-28T14:16:34.343Z,100867.60
2022-10-28T14:22:07.179Z,100853.20
2022-10-28T14:27:43.922Z,100855.80
2022-10-28T14:32:50.001Z,100853.60
2022-10-28T14:38:10.118Z,100852.60
2022-10-28T14:43:46.413Z,100837.00
2022-10-28T14:49:24.315Z,100826.60
2022-10-28T14:54:39.813Z,100829.20
2022-10-28T14:59:45.706Z,100825.40
2022-10-28T15:05:00.773Z,100831.40
2022-10-28T15:10:38.276Z,100829.20
2022-10-28T15:16:03.804Z,100818.40
2022-10-28T15:21:16.785Z,100819.00
2022-10-28T15:26:19.852Z,100840.00
2022-10-28T15:31:23.012Z,100835.60
2022-10-28T15:36:49.474Z,100828.60
2022-10-28T15:41:54.547Z,100844.00
2022-10-28T15:47:00.321Z,100847.20
2022-10-28T15:52:19.059Z,100850.00
2022-10-28T15:57:30.164Z,100855.20
2022-10-28T16:02:41.366Z,100862.00
2022-10-28T16:07:45.935Z,100872.80
2022-10-28T16:13:10.603Z,100858.80
2022-10-28T16:18:42.332Z,100850.20
2022-10-28T16:23:49.585Z,100835.80
2022-10-28T16:28:53.615Z,100841.60
2022-10-28T16:33:59.938Z,100830.60
2022-10-28T16:39:03.070Z,100838.80
2022-10-28T16:44:10.156Z,100826.60
2022-10-28T16:49:13.378Z,100822.40
2022-10-28T16:54:16.353Z,100810.40
2022-10-28T16:59:19.370Z,100818.80
2022-10-28T17:04:22.571Z,100803.60
2022-10-28T17:09:25.571Z,100812.80
2022-10-28T17:14:28.579Z,100820.20
2022-10-28T17:19:31.685Z,100804.40
2022-10-28T17:24:35.202Z,100805.20
2022-10-28T17:29:39.031Z,100801.20
2022-10-28T17:34:42.642Z,100810.20
2022-10-28T17:39:45.805Z,100816.60
2022-10-28T17:45:07.794Z,100805.40
2022-10-28T17:50:10.905Z,100800.80
2022-10-28T17:55:13.910Z,100812.80
2022-10-28T18:00:34.421Z,100805.40
2022-10-28T18:05:56.674Z,100810.80
2022-10-28T18:11:00.399Z,100801.40
2022-10-28T18:16:05.762Z,100789.00
2022-10-28T18:21:11.725Z,100777.20
2022-10-28T18:26:35.946Z,100765.60
2022-10-28T18:31:42.297Z,100758.80
2022-10-28T18:36:45.942Z,100747.20
2022-10-28T18:41:51.575Z,100766.80
2022-10-28T18:46:54.908Z,100767.40
2022-10-28T18:51:59.762Z,100758.80
2022-10-28T18:57:20.272Z,100750.60
2022-10-28T19:02:23.770Z,100752.40
2022-10-28T19:07:45.219Z,100751.40
2022-10-28T19:12:52.778Z,100743.00
2022-10-28T19:17:56.415Z,100741.00
2022-10-28T19:23:18.807Z,100727.20
2022-10-28T19:28:23.053Z,100724.40
2022-10-28T19:33:28.232Z,100719.20
2022-10-28T19:38:34.223Z,100711.20
2022-10-28T19:43:38.093Z,100702.80
2022-10-28T19:48:45.518Z,100704.80
2022-10-28T19:53:57.946Z,100704.40
2022-10-28T19:59:04.781Z,100700.60
2022-10-28T20:04:10.257Z,100700.80
2022-10-28T20:09:14.511Z,100704.00
2022-10-28T20:14:17.828Z,100703.20
2022-10-28T20:19:38.749Z,100694.00
2022-10-28T20:24:41.883Z,100692.40
2022-10-28T20:29:44.859Z,100690.40
2022-10-28T20:34:47.996Z,100689.40
2022-10-28T20:40:10.322Z,100685.00
2022-10-28T20:45:14.147Z,100675.60
2022-10-28T20:50:17.658Z,100677.80
2022-10-28T20:55:20.762Z,100675.80
2022-10-28T21:00:24.111Z,100683.80
2022-10-28T21:05:27.190Z,100672.60
2022-10-28T21:10:30.289Z,100674.00
2022-10-28T21:15:56.389Z,100672.00
2022-10-28T21:21:21.224Z,100669.20
2022-10-28T21:26:41.578Z,100662.60
2022-10-28T21:31:44.673Z,100662.20
2022-10-28T21:37:05.178Z,100655.60
2022-10-28T21:42:25.847Z,100647.60
2022-10-28T21:47:29.116Z,100643.00
2022-10-28T21:52:32.221Z,100644.20
2022-10-28T21:57:35.320Z,100644.40
2022-10-28T22:02:38.530Z,100646.20
2022-10-28T22:07:41.637Z,100641.00
2022-10-28T22:12:44.757Z,100636.60
2022-10-28T22:17:48.358Z,100628.40
2022-10-28T22:22:51.465Z,100624.60
2022-10-28T22:27:54.571Z,100624.40
2022-10-28T22:32:59.952Z,100624.40
2022-10-28T22:38:03.035Z,100621.40
2022-10-28T22:43:06.278Z,100615.80
2022-10-28T22:48:28.316Z,100609.00
2022-10-28T22:53:31.400Z,100610.60
2022-10-28T22:58:35.029Z,100604.40
2022-10-28T23:03:44.513Z,100603.80
2022-10-28T23:09:05.098Z,100601.40
2022-10-28T23:14:08.414Z,100597.80
2022-10-28T23:19:29.231Z,100590.00
2022-10-28T23:24:32.329Z,100584.40
2022-10-28T23:29:53.661Z,100592.40
2022-10-28T23:34:56.769Z,100583.20
2022-10-28T23:39:59.917Z,100581.80
2022-10-28T23:45:03.287Z,100582.40
2022-10-28T23:50:06.633Z,100580.40
2022-10-28T23:55:10.420Z,100580.40
